Time;durP1;ratioP1;P1;durP2;ratioP2;P2;SDS_P1;SDS_P2;PMS_P1;PMS_P2;Temp;Humidity;BMP_temperature;BMP_pressure;BME280_temperature;BME280_humidity;BME280_pressure;Samples;Min_cycle;Max_cycle;Signal;HPM_P1;HPM_P2
2021/10/19 00:00:35;;;;;;;21.70;15.80;;;;;;;15.60;66.72;101456.59;4823079;28;119663;-74
2021/10/19 00:03:01;;;;;;;24.92;15.95;;;;;;;15.56;66.74;101447.69;4811857;29;121080;-75
2021/10/19 00:05:27;;;;;;;22.83;15.38;;;;;;;15.59;66.44;101455.06;4809290;28;120407;-74
2021/10/19 00:07:53;;;;;;;23.58;15.00;;;;;;;15.45;66.59;101435.59;4816508;29;119696;-74
2021/10/19 00:10:20;;;;;;;27.55;16.80;;;;;;;15.58;66.91;101461.84;4834704;28;120668;-74
2021/10/19 00:12:46;;;;;;;21.77;14.93;;;;;;;15.45;66.25;101447.44;4830044;28;119919;-74
2021/10/19 00:15:14;;;;;;;34.58;16.23;;;;;;;15.55;66.19;101467.50;4825576;28;119786;-74
2021/10/19 00:17:42;;;;;;;25.90;15.82;;;;;;;15.57;66.52;101465.03;4822999;28;119995;-75
2021/10/19 00:20:10;;;;;;;25.80;15.52;;;;;;;15.58;66.55;101469.34;4824201;28;119697;-74
2021/10/19 00:22:36;;;;;;;22.75;15.43;;;;;;;15.58;66.77;101466.56;4829970;28;119694;-75
2021/10/19 00:25:05;;;;;;;29.40;15.73;;;;;;;15.57;67.02;101459.50;4802941;28;120094;-74
2021/10/19 00:27:32;;;;;;;24.20;15.13;;;;;;;15.58;66.85;101472.09;4828207;28;119531;-74
2021/10/19 00:29:59;;;;;;;26.70;15.85;;;;;;;15.59;66.84;101471.66;4827706;28;120001;-75
2021/10/19 00:32:24;;;;;;;24.42;15.07;;;;;;;15.57;66.62;101470.56;4809254;28;119644;-75
2021/10/19 00:34:53;;;;;;;23.35;16.42;;;;;;;15.54;66.44;101461.22;4820742;28;120110;-74
2021/10/19 00:37:18;;;;;;;24.20;15.45;;;;;;;15.55;65.77;101459.22;4826050;28;120006;-74
2021/10/19 00:39:44;;;;;;;24.42;15.50;;;;;;;15.57;66.28;101453.97;4825168;28;120541;-75
2021/10/19 00:42:10;;;;;;;25.67;15.50;;;;;;;15.57;66.54;101442.91;4809752;28;120063;-75
2021/10/19 00:44:35;;;;;;;21.55;14.68;;;;;;;15.56;65.87;101435.84;4804954;29;120769;-74
2021/10/19 00:47:01;;;;;;;28.00;15.52;;;;;;;15.51;66.47;101439.25;4823513;28;119832;-74
2021/10/19 00:49:27;;;;;;;26.17;16.95;;;;;;;15.57;66.73;101453.97;4806223;28;121214;-74
2021/10/19 00:51:53;;;;;;;25.92;16.90;;;;;;;15.59;66.79;101451.53;4826444;28;119943;-74
2021/10/19 00:54:22;;;;;;;24.48;16.83;;;;;;;15.59;67.23;101444.00;4802901;29;120337;-74
2021/10/19 00:56:48;;;;;;;24.77;16.17;;;;;;;15.60;66.51;101450.31;4824465;28;119639;-75
2021/10/19 00:59:15;;;;;;;24.88;15.60;;;;;;;15.61;66.91;101451.84;4822050;28;119572;-75
2021/10/19 01:01:41;;;;;;;30.48;17.10;;;;;;;15.62;66.54;101450.63;4824165;28;119682;-74
2021/10/19 01:04:06;;;;;;;25.25;16.23;;;;;;;15.61;67.01;101444.34;4803907;28;120530;-74
2021/10/19 01:06:35;;;;;;;26.58;16.65;;;;;;;15.62;66.68;101436.81;4792737;29;119692;-74
2021/10/19 01:09:01;;;;;;;22.55;16.13;;;;;;;15.63;66.82;101427.28;4810054;29;122960;-74
2021/10/19 01:11:27;;;;;;;28.80;15.35;;;;;;;15.64;66.91;101424.03;4813256;28;122234;-74
2021/10/19 01:13:53;;;;;;;24.88;16.30;;;;;;;15.65;66.71;101413.75;4831111;28;119889;-74
2021/10/19 01:16:18;;;;;;;24.77;16.02;;;;;;;15.63;66.71;101407.91;4819321;28;121134;-75
2021/10/19 01:18:44;;;;;;;22.27;15.45;;;;;;;15.67;66.35;101397.44;4824635;28;119266;-75
2021/10/19 01:21:13;;;;;;;23.80;16.17;;;;;;;15.65;66.39;101394.38;4825850;28;119648;-74
2021/10/19 01:23:39;;;;;;;23.92;16.55;;;;;;;15.63;66.19;101383.03;4809245;28;120729;-74
2021/10/19 01:26:09;;;;;;;24.35;16.08;;;;;;;15.63;66.29;101380.25;4821355;28;120708;-74
2021/10/19 01:28:40;;;;;;;27.38;16.98;;;;;;;15.57;66.36;101366.25;4823281;28;121134;-74
2021/10/19 01:31:06;;;;;;;24.05;17.17;;;;;;;15.58;65.64;101367.81;4821758;28;119885;-75
2021/10/19 01:33:34;;;;;;;26.67;16.35;;;;;;;15.60;66.00;101359.06;4814120;29;119510;-75
2021/10/19 01:35:59;;;;;;;27.30;16.17;;;;;;;15.62;66.03;101353.84;4809095;28;119992;-74
2021/10/19 01:38:27;;;;;;;24.63;16.70;;;;;;;15.63;66.28;101353.38;4826679;28;120136;-74
2021/10/19 01:40:55;;;;;;;26.13;16.83;;;;;;;15.61;65.88;101352.28;4817177;28;119545;-74
2021/10/19 01:43:23;;;;;;;24.92;17.40;;;;;;;15.61;66.14;101364.16;4820143;28;120058;-74
2021/10/19 01:45:51;;;;;;;30.77;17.85;;;;;;;15.59;66.77;101357.53;4809711;29;119872;-74
2021/10/19 01:48:17;;;;;;;25.02;16.17;;;;;;;15.62;66.21;101359.38;4817955;28;119596;-74
2021/10/19 01:50:44;;;;;;;23.15;16.52;;;;;;;15.60;66.56;101348.00;4825324;28;125061;-74
2021/10/19 01:53:11;;;;;;;23.55;15.10;;;;;;;15.65;66.08;101358.44;4823158;28;120138;-74
2021/10/19 01:55:38;;;;;;;23.20;17.63;;;;;;;15.66;66.38;101337.84;4821786;28;120062;-74
2021/10/19 01:58:05;;;;;;;23.98;15.85;;;;;;;15.67;66.28;101342.13;4827684;28;119957;-74
2021/10/19 02:00:31;;;;;;;25.60;17.45;;;;;;;15.69;66.24;101330.59;4822442;28;119747;-74
2021/10/19 02:02:57;;;;;;;23.38;16.70;;;;;;;15.67;66.04;101325.53;4826784;28;120009;-74
2021/10/19 02:05:22;;;;;;;25.52;17.05;;;;;;;15.68;65.94;101338.13;4819131;28;119999;-75
2021/10/19 02:07:48;;;;;;;29.25;17.55;;;;;;;15.68;65.75;101338.13;4824884;28;119681;-74
2021/10/19 02:10:14;;;;;;;24.88;16.50;;;;;;;15.67;65.72;101320.00;4828184;28;119506;-74
2021/10/19 02:12:40;;;;;;;27.40;17.95;;;;;;;15.63;66.26;101298.06;4805902;28;120167;-74
2021/10/19 02:15:08;;;;;;;25.75;16.33;;;;;;;15.68;66.06;101296.66;4804366;28;120079;-75
2021/10/19 02:17:34;;;;;;;28.75;18.05;;;;;;;15.68;65.90;101293.88;4824378;28;120295;-74
2021/10/19 02:20:00;;;;;;;27.17;17.73;;;;;;;15.64;66.17;101285.00;4815467;28;119800;-75
2021/10/19 02:22:33;;;;;;;24.23;17.40;;;;;;;15.70;66.19;101285.13;4810992;28;119683;-75
2021/10/19 02:24:59;;;;;;;25.70;18.40;;;;;;;15.66;66.21;101285.28;4831501;28;119597;-75
2021/10/19 02:27:25;;;;;;;27.10;17.80;;;;;;;15.70;66.43;101296.19;4826289;28;120072;-74
2021/10/19 02:29:51;;;;;;;25.75;17.20;;;;;;;15.68;66.24;101310.47;4813561;28;120869;-74
2021/10/19 02:32:18;;;;;;;26.50;17.90;;;;;;;15.70;66.06;101308.00;4849739;28;121270;-74
2021/10/19 02:34:44;;;;;;;28.70;18.40;;;;;;;15.71;65.85;101309.53;4824377;28;119753;-75
2021/10/19 02:37:10;;;;;;;28.00;19.15;;;;;;;15.73;66.06;101304.28;4810338;29;120544;-75
2021/10/19 02:39:35;;;;;;;32.35;19.63;;;;;;;15.74;66.03;101303.06;4797185;28;119612;-74
2021/10/19 02:42:01;;;;;;;33.17;18.42;;;;;;;15.73;66.42;101287.69;4814905;28;120090;-75
2021/10/19 02:44:27;;;;;;;26.40;18.35;;;;;;;15.70;66.03;101285.88;4826027;28;119853;-74
2021/10/19 02:46:52;;;;;;;30.48;19.15;;;;;;;15.77;66.42;101285.50;4816012;28;119601;-74
2021/10/19 02:49:18;;;;;;;27.92;18.77;;;;;;;15.77;66.12;101282.00;4815445;28;122269;-75
2021/10/19 02:51:44;;;;;;;29.75;19.45;;;;;;;15.80;66.36;101292.09;4831497;28;120228;-74
2021/10/19 02:54:12;;;;;;;30.85;19.73;;;;;;;15.80;66.74;101284.56;4813866;29;119556;-75
2021/10/19 02:56:41;;;;;;;28.20;18.70;;;;;;;15.79;66.51;101290.56;4814293;28;120800;-74
2021/10/19 02:59:06;;;;;;;30.50;19.75;;;;;;;15.83;66.38;101286.38;4829445;28;119851;-74
2021/10/19 03:01:33;;;;;;;28.27;18.98;;;;;;;15.84;66.32;101287.91;4815547;29;120369;-74
2021/10/19 03:03:59;;;;;;;28.05;19.52;;;;;;;15.86;66.44;101281.94;4832861;28;119911;-74
2021/10/19 03:06:24;;;;;;;30.30;19.60;;;;;;;15.81;66.86;101266.72;4817827;29;121284;-74
2021/10/19 03:08:50;;;;;;;29.48;19.25;;;;;;;15.89;66.80;101267.91;4825247;28;119787;-74
2021/10/19 03:11:16;;;;;;;32.13;20.80;;;;;;;15.91;66.88;101272.97;4832974;28;119804;-74
2021/10/19 03:13:41;;;;;;;30.40;19.58;;;;;;;15.86;66.97;101265.34;4826216;28;120055;-74
2021/10/19 03:16:10;;;;;;;32.58;19.08;;;;;;;15.91;66.81;101272.97;4828359;28;119936;-74
2021/10/19 03:18:35;;;;;;;36.17;21.25;;;;;;;15.90;66.73;101268.69;4831735;28;119498;-74
2021/10/19 03:21:04;;;;;;;30.27;20.38;;;;;;;15.90;66.59;101266.69;4831175;28;120284;-74
2021/10/19 03:23:30;;;;;;;38.15;20.40;;;;;;;15.94;66.41;101266.50;4835686;28;119505;-75
2021/10/19 03:25:55;;;;;;;34.20;21.17;;;;;;;15.92;66.53;101268.97;4831419;28;119421;-74
2021/10/19 03:28:21;;;;;;;32.55;20.67;;;;;;;15.90;66.36;101271.44;4828750;28;119856;-74
2021/10/19 03:30:46;;;;;;;30.30;20.73;;;;;;;15.93;66.56;101279.56;4823292;28;119904;-75
2021/10/19 03:33:12;;;;;;;30.38;19.92;;;;;;;15.91;66.18;101264.69;4815623;28;119528;-74
2021/10/19 03:35:37;;;;;;;35.45;20.48;;;;;;;15.98;66.48;101267.06;4809118;28;121150;-74
2021/10/19 03:38:04;;;;;;;29.30;19.35;;;;;;;15.98;66.43;101264.31;4821790;28;122823;-74
2021/10/19 03:40:30;;;;;;;34.08;21.90;;;;;;;16.01;66.29;101265.38;4826565;28;119816;-75
2021/10/19 03:42:55;;;;;;;32.97;21.75;;;;;;;16.02;66.70;101261.34;4820592;28;124821;-74
2021/10/19 03:45:21;;;;;;;31.40;20.25;;;;;;;16.02;66.33;101261.34;4819857;28;120068;-74
2021/10/19 03:47:47;;;;;;;32.78;21.25;;;;;;;16.02;66.42;101253.81;4827811;28;121285;-74
2021/10/19 03:50:13;;;;;;;32.42;20.85;;;;;;;16.01;66.44;101254.28;4826757;28;120246;-74
2021/10/19 03:52:39;;;;;;;31.55;20.08;;;;;;;16.03;66.23;101240.75;4826724;28;120272;-75
2021/10/19 03:55:07;;;;;;;35.58;21.42;;;;;;;16.02;66.44;101245.50;4821725;28;120366;-74
2021/10/19 03:57:35;;;;;;;32.63;20.52;;;;;;;16.02;66.58;101245.50;4823774;28;119651;-74
2021/10/19 04:00:02;;;;;;;34.92;21.23;;;;;;;16.03;66.81;101246.28;4823889;28;119973;-74
2021/10/19 04:02:37;;;;;;;33.83;21.23;;;;;;;16.00;66.40;101236.16;4824137;28;120621;-74
2021/10/19 04:05:03;;;;;;;34.90;20.80;;;;;;;16.00;66.37;101236.16;4809994;29;120623;-74
2021/10/19 04:07:28;;;;;;;36.17;22.83;;;;;;;16.03;66.42;101237.97;4816389;28;120611;-74
2021/10/19 04:09:54;;;;;;;35.80;21.50;;;;;;;16.02;66.26;101231.69;4826150;28;119862;-75
2021/10/19 04:12:20;;;;;;;35.30;21.73;;;;;;;16.02;66.34;101245.50;4823761;28;119567;-76
2021/10/19 04:14:45;;;;;;;31.38;20.58;;;;;;;15.95;66.33;101235.59;4808815;28;120687;-74
2021/10/19 04:17:11;;;;;;;31.95;20.50;;;;;;;16.02;66.11;101247.53;4821834;28;119723;-75
2021/10/19 04:19:36;;;;;;;33.13;21.15;;;;;;;16.03;66.17;101246.28;4819718;28;119810;-75
2021/10/19 04:22:02;;;;;;;35.33;21.70;;;;;;;16.00;66.48;101233.41;4828151;28;119611;-74
2021/10/19 04:24:28;;;;;;;36.20;21.33;;;;;;;16.02;66.18;101241.97;4823092;28;120063;-75
2021/10/19 04:26:53;;;;;;;31.73;21.48;;;;;;;16.00;65.88;101236.94;4829025;28;121059;-74
2021/10/19 04:29:19;;;;;;;31.10;20.40;;;;;;;15.98;65.65;101236.63;4803632;28;120580;-75
2021/10/19 04:31:44;;;;;;;34.60;21.60;;;;;;;15.96;65.69;101236.34;4805251;29;120230;-74
2021/10/19 04:34:10;;;;;;;30.55;21.40;;;;;;;15.96;65.96;101233.59;4790445;28;120745;-75
2021/10/19 04:36:38;;;;;;;33.63;21.55;;;;;;;15.96;66.65;101234.34;4830228;28;119907;-74
2021/10/19 04:39:04;;;;;;;35.85;21.27;;;;;;;15.96;66.18;101242.66;4828563;28;119721;-75
2021/10/19 04:41:29;;;;;;;34.50;21.75;;;;;;;15.92;66.29;101228.25;4828093;28;119642;-74
2021/10/19 04:43:55;;;;;;;34.35;21.40;;;;;;;15.98;66.17;101235.88;4823777;28;119846;-74
2021/10/19 04:46:21;;;;;;;34.78;22.23;;;;;;;15.98;66.21;101233.88;4824175;28;119932;-74
2021/10/19 04:48:46;;;;;;;37.85;23.48;;;;;;;15.98;66.50;101235.88;4812978;28;120943;-74
2021/10/19 04:51:12;;;;;;;35.90;22.92;;;;;;;15.93;66.40;101229.78;4794548;29;121164;-74
2021/10/19 04:53:38;;;;;;;35.40;23.05;;;;;;;15.94;66.27;101233.28;4825884;28;119563;-74
2021/10/19 04:56:06;;;;;;;39.08;22.50;;;;;;;15.98;66.48;101235.88;4822944;28;120288;-74
2021/10/19 04:58:33;;;;;;;42.95;23.13;;;;;;;15.99;66.26;101243.69;4831982;28;119686;-74
2021/10/19 05:00:58;;;;;;;35.67;22.23;;;;;;;15.93;66.91;101229.78;4809415;29;120603;-74
2021/10/19 05:03:24;;;;;;;37.05;22.92;;;;;;;16.02;66.97;101244.75;4822434;28;120168;-74
2021/10/19 05:05:50;;;;;;;37.75;23.50;;;;;;;16.05;66.67;101257.63;4827802;28;119749;-74
2021/10/19 05:08:16;;;;;;;36.17;22.92;;;;;;;16.06;66.41;101245.31;4791708;29;120807;-74
2021/10/19 05:10:45;;;;;;;36.38;22.33;;;;;;;16.07;66.61;101235.78;4829889;28;119614;-74
2021/10/19 05:13:11;;;;;;;37.55;22.17;;;;;;;16.08;66.76;101224.25;4827867;28;121297;-74
2021/10/19 05:15:38;;;;;;;36.33;22.10;;;;;;;16.10;66.46;101232.09;4823953;28;118800;-74
2021/10/19 05:18:04;;;;;;;37.28;22.67;;;;;;;16.10;66.26;101223.78;4824605;28;119419;-74
2021/10/19 05:20:30;;;;;;;37.05;24.02;;;;;;;16.10;66.46;101227.31;4826831;28;120725;-74
2021/10/19 05:22:56;;;;;;;41.97;23.90;;;;;;;16.11;66.50;101237.16;4823447;28;119749;-74
2021/10/19 05:25:23;;;;;;;38.13;23.00;;;;;;;16.11;66.76;101230.84;4814241;28;119867;-74
2021/10/19 05:27:49;;;;;;;43.08;24.92;;;;;;;16.09;66.31;101223.03;4806273;29;120206;-74
2021/10/19 05:30:16;;;;;;;37.60;23.90;;;;;;;16.07;66.32;101230.25;4791467;29;120141;-74
2021/10/19 05:32:42;;;;;;;40.30;23.67;;;;;;;16.03;66.18;101218.59;4827901;28;120129;-75
2021/10/19 05:35:10;;;;;;;39.63;23.42;;;;;;;16.08;66.56;101229.00;4825388;28;119614;-74
2021/10/19 05:37:36;;;;;;;46.92;24.75;;;;;;;16.03;66.61;101215.84;4826108;28;119784;-74
2021/10/19 05:40:06;;;;;;;36.20;23.20;;;;;;;16.11;66.05;101225.31;4831040;28;119388;-74
2021/10/19 05:42:31;;;;;;;40.00;25.65;;;;;;;16.10;66.24;101224.56;4821714;28;119476;-74
2021/10/19 05:44:57;;;;;;;36.92;23.27;;;;;;;16.08;66.40;101215.19;4805230;28;119719;-74
2021/10/19 05:47:23;;;;;;;42.75;24.63;;;;;;;16.12;66.34;101215.78;4810966;28;119972;-74
2021/10/19 05:49:48;;;;;;;38.42;23.55;;;;;;;16.12;66.23;101211.00;4806570;28;120773;-74
2021/10/19 05:52:14;;;;;;;40.63;24.17;;;;;;;16.14;66.39;101211.28;4811664;28;119412;-74
2021/10/19 05:54:39;;;;;;;39.33;24.58;;;;;;;16.11;66.28;101201.19;4826704;28;120921;-74
2021/10/19 05:57:05;;;;;;;41.70;24.95;;;;;;;16.14;66.18;101196.69;4824554;28;119330;-74
2021/10/19 05:59:31;;;;;;;44.70;25.83;;;;;;;16.16;66.42;101194.97;4810058;28;120731;-74
2021/10/19 06:01:59;;;;;;;38.33;25.02;;;;;;;16.17;66.54;101192.97;4810035;29;119703;-74
2021/10/19 06:04:26;;;;;;;40.92;25.83;;;;;;;16.14;66.76;101189.16;4821804;28;119952;-74
2021/10/19 06:06:56;;;;;;;40.85;24.85;;;;;;;16.20;66.59;101197.53;4824745;28;120031;-74
2021/10/19 06:09:22;;;;;;;46.13;25.02;;;;;;;16.21;66.40;101201.84;4825120;28;119823;-75
2021/10/19 06:11:48;;;;;;;41.40;24.52;;;;;;;16.19;66.26;101201.56;4811103;28;119906;-74
2021/10/19 06:14:15;;;;;;;36.35;22.98;;;;;;;16.17;65.71;101204.78;4804550;29;119892;-74
2021/10/19 06:16:40;;;;;;;40.45;24.58;;;;;;;16.14;66.28;101194.69;4830512;28;119512;-74
2021/10/19 06:19:06;;;;;;;43.65;25.02;;;;;;;16.16;66.51;101188.66;4819236;28;121299;-74
2021/10/19 06:21:31;;;;;;;41.67;26.17;;;;;;;16.23;66.63;101199.34;4824503;28;119563;-74
2021/10/19 06:23:57;;;;;;;45.10;25.90;;;;;;;16.08;66.40;101174.44;4806101;29;119828;-74
2021/10/19 06:26:23;;;;;;;41.58;24.55;;;;;;;16.24;66.67;101211.94;4792337;28;122383;-74
2021/10/19 06:28:48;;;;;;;40.83;25.65;;;;;;;16.23;66.59;101204.88;4823037;28;119922;-74
2021/10/19 06:31:14;;;;;;;41.63;25.45;;;;;;;16.27;66.68;101205.47;4802832;29;119471;-74
2021/10/19 06:33:40;;;;;;;39.22;23.77;;;;;;;16.22;66.47;101198.59;4811286;29;119939;-74
2021/10/19 06:36:05;;;;;;;42.10;24.23;;;;;;;16.26;66.30;101201.16;4832114;28;119754;-74
2021/10/19 06:38:31;;;;;;;45.10;26.45;;;;;;;16.28;66.50;101206.97;4818425;28;119507;-74
2021/10/19 06:40:57;;;;;;;40.85;24.02;;;;;;;16.30;66.19;101198.19;4823154;28;121944;-74
2021/10/19 06:43:23;;;;;;;38.78;24.67;;;;;;;16.28;66.37;101201.44;4820910;28;120112;-74
2021/10/19 06:45:49;;;;;;;40.92;25.17;;;;;;;16.33;66.55;101200.81;4823812;28;119996;-74
2021/10/19 06:48:14;;;;;;;39.75;24.98;;;;;;;16.33;66.23;101192.50;4820415;28;119660;-74
2021/10/19 06:50:40;;;;;;;42.08;25.27;;;;;;;16.33;66.15;101192.50;4823166;28;119530;-74
2021/10/19 06:53:06;;;;;;;40.55;24.05;;;;;;;16.34;66.43;101190.50;4807929;28;120738;-74
2021/10/19 06:55:31;;;;;;;45.78;25.30;;;;;;;16.31;66.27;101181.13;4819306;28;119539;-74
2021/10/19 06:57:58;;;;;;;38.30;25.63;;;;;;;16.37;66.31;101186.75;4814983;29;120259;-74
2021/10/19 07:00:24;;;;;;;42.63;25.95;;;;;;;16.40;66.48;101186.56;4805741;28;119713;-74
2021/10/19 07:02:50;;;;;;;47.45;26.77;;;;;;;16.37;66.60;101182.00;4830874;28;121957;-74
2021/10/19 07:05:16;;;;;;;41.55;25.33;;;;;;;16.40;66.55;101175.50;4823273;28;119747;-74
2021/10/19 07:07:43;;;;;;;43.10;26.02;;;;;;;16.45;66.59;101174.06;4815249;29;119491;-75
2021/10/19 07:10:13;;;;;;;39.80;23.92;;;;;;;16.41;66.38;101163.19;4826848;28;120100;-74
2021/10/19 07:12:39;;;;;;;41.47;26.25;;;;;;;16.45;66.63;101169.28;4811627;29;122278;-75
2021/10/19 07:15:07;;;;;;;46.00;26.33;;;;;;;16.45;66.50;101146.38;4808498;29;120123;-75
2021/10/19 07:17:32;;;;;;;47.50;26.52;;;;;;;16.47;66.14;101149.41;4821650;28;121014;-74
2021/10/19 07:19:58;;;;;;;44.88;25.38;;;;;;;16.42;66.39;101137.00;4827950;28;119402;-74
2021/10/19 07:22:25;;;;;;;41.90;26.05;;;;;;;16.49;66.28;101150.47;4829947;28;119636;-74
2021/10/19 07:24:51;;;;;;;41.10;26.30;;;;;;;16.53;66.02;101150.25;4828117;28;119512;-74
2021/10/19 07:27:17;;;;;;;43.90;24.55;;;;;;;16.53;66.05;101144.72;4810322;28;119922;-74
2021/10/19 07:29:44;;;;;;;42.65;24.52;;;;;;;16.54;65.97;101140.69;4803852;28;121974;-74
2021/10/19 07:32:10;;;;;;;46.38;26.40;;;;;;;16.55;66.22;101143.00;4814315;28;122031;-74
2021/10/19 07:34:38;;;;;;;44.25;25.95;;;;;;;16.56;65.72;101144.53;4810230;28;119693;-74
2021/10/19 07:37:04;;;;;;;43.55;25.08;;;;;;;16.55;65.63;101154.06;4823856;28;120042;-74
2021/10/19 07:39:30;;;;;;;43.13;25.65;;;;;;;16.56;66.04;101150.09;4805638;29;120405;-73
2021/10/19 07:41:56;;;;;;;40.83;24.38;;;;;;;16.55;65.64;101148.53;4830703;28;120258;-74
2021/10/19 07:44:25;;;;;;;43.78;25.65;;;;;;;16.55;66.05;101151.28;4826419;28;119531;-74
2021/10/19 07:46:52;;;;;;;47.15;26.63;;;;;;;16.54;65.80;101151.78;4816673;29;120529;-74
2021/10/19 07:49:24;;;;;;;40.70;25.58;;;;;;;16.50;65.80;101146.44;4826939;28;119939;-74
2021/10/19 07:51:55;;;;;;;37.95;21.77;;;;;;;16.53;65.56;101150.25;4823869;28;120100;-74
2021/10/19 07:54:23;;;;;;;39.00;24.42;;;;;;;16.45;65.82;101133.28;4822186;28;119697;-74
2021/10/19 07:56:49;;;;;;;42.72;25.65;;;;;;;16.56;65.74;101154.81;4808455;28;120460;-74
2021/10/19 07:59:14;;;;;;;38.90;24.60;;;;;;;16.58;65.95;101164.22;4831722;28;120249;-74
2021/10/19 08:01:41;;;;;;;44.78;26.23;;;;;;;16.60;65.76;101157.44;4822681;28;120559;-74
2021/10/19 08:04:08;;;;;;;47.63;25.77;;;;;;;16.63;66.29;101153.69;4809500;29;120707;-74
2021/10/19 08:06:33;;;;;;;43.35;26.48;;;;;;;16.65;66.41;101151.97;4822658;28;119959;-74
2021/10/19 08:09:02;;;;;;;42.00;25.08;;;;;;;16.72;65.96;101161.91;4826790;28;120200;-74
2021/10/19 08:11:28;;;;;;;43.90;26.55;;;;;;;16.72;66.03;101159.91;4827763;28;120363;-74
2021/10/19 08:13:56;;;;;;;41.88;26.30;;;;;;;16.78;65.80;101162.75;4803351;28;120146;-74
2021/10/19 08:16:22;;;;;;;38.22;23.13;;;;;;;16.75;65.86;101158.16;4821825;28;120146;-75
2021/10/19 08:18:52;;;;;;;41.58;23.00;;;;;;;16.83;65.58;101167.63;4811561;28;120715;-74
2021/10/19 08:21:20;;;;;;;40.25;25.40;;;;;;;16.87;65.76;101162.63;4826416;28;120549;-74
2021/10/19 08:23:46;;;;;;;45.20;27.60;;;;;;;16.91;66.03;101154.88;4826420;28;119930;-73
2021/10/19 08:26:12;;;;;;;41.72;25.83;;;;;;;16.97;66.19;101147.41;4811233;28;119968;-74
2021/10/19 08:28:43;;;;;;;39.28;22.38;;;;;;;16.99;65.62;101150.44;4827669;28;120502;-74
2021/10/19 08:31:16;;;;;;;45.45;27.73;;;;;;;17.03;65.85;101155.78;4824508;28;120701;-74
2021/10/19 08:33:45;;;;;;;48.83;27.25;;;;;;;17.06;65.83;101152.84;4807549;28;120265;-74
2021/10/19 08:36:11;;;;;;;43.80;27.48;;;;;;;17.10;66.00;101163.72;4806515;29;119854;-74
2021/10/19 08:38:36;;;;;;;44.55;26.98;;;;;;;17.13;66.34;101162.75;4823377;28;119946;-74
2021/10/19 08:41:02;;;;;;;42.90;27.00;;;;;;;17.17;66.33;101155.75;4823015;28;120161;-74
2021/10/19 08:43:28;;;;;;;45.33;26.45;;;;;;;17.24;66.42;101145.47;4811472;29;120705;-74
2021/10/19 08:45:54;;;;;;;48.72;27.00;;;;;;;17.26;66.11;101148.53;4827954;28;120983;-74
2021/10/19 08:48:20;;;;;;;46.72;26.70;;;;;;;17.27;66.13;101147.28;4800128;29;119934;-75
2021/10/19 08:50:46;;;;;;;52.03;27.38;;;;;;;17.29;66.34;101158.66;4812046;29;120523;-74
2021/10/19 08:53:13;;;;;;;45.10;25.65;;;;;;;17.29;65.81;101158.66;4810307;28;120443;-74
2021/10/19 08:55:41;;;;;;;48.50;27.60;;;;;;;17.26;66.01;101154.06;4824879;28;120219;-74
2021/10/19 08:58:11;;;;;;;45.72;27.17;;;;;;;17.29;66.13;101159.44;4805253;28;120540;-74
2021/10/19 09:00:40;;;;;;;48.45;27.20;;;;;;;17.27;66.15;101147.28;4805309;28;119721;-74
2021/10/19 09:03:06;;;;;;;43.65;27.35;;;;;;;17.31;66.19;101151.38;4825526;28;119602;-74
2021/10/19 09:05:32;;;;;;;52.35;28.67;;;;;;;17.40;66.57;101147.69;4821392;28;120030;-74
2021/10/19 09:08:08;;;;;;;45.85;28.58;;;;;;;17.44;66.43;101140.69;4831774;28;119966;-74
2021/10/19 09:10:37;;;;;;;45.50;28.20;;;;;;;17.45;66.29;101147.00;4820698;28;119953;-74
2021/10/19 09:13:05;;;;;;;46.17;27.80;;;;;;;17.48;66.20;101135.69;4803240;28;120218;-74
2021/10/19 09:15:33;;;;;;;48.63;28.20;;;;;;;17.52;66.42;101148.59;4825456;28;120017;-74
2021/10/19 09:18:10;;;;;;;48.35;27.77;;;;;;;17.55;66.52;101140.06;4822807;28;119830;-74
2021/10/19 09:20:46;;;;;;;44.45;27.83;;;;;;;17.58;66.13;101128.00;4809166;29;120301;-74
2021/10/19 09:23:13;;;;;;;43.25;27.98;;;;;;;17.61;65.98;101126.25;4809060;28;119634;-74
2021/10/19 09:25:42;;;;;;;44.90;27.92;;;;;;;17.62;66.00;101120.22;4822391;28;121292;-74
2021/10/19 09:28:11;;;;;;;50.58;29.98;;;;;;;17.58;65.86;101119.66;4804838;28;120200;-74
2021/10/19 09:30:39;;;;;;;47.03;27.95;;;;;;;17.61;66.10;101117.94;4814510;29;120615;-75
2021/10/19 09:33:11;;;;;;;47.88;27.75;;;;;;;17.59;66.11;101109.34;4793100;29;120295;-75
2021/10/19 09:35:40;;;;;;;49.83;28.08;;;;;;;17.56;66.26;101108.31;4825117;28;122027;-74
2021/10/19 09:38:09;;;;;;;51.13;28.55;;;;;;;17.52;66.17;101091.13;4823252;28;124810;-74
2021/10/19 09:40:43;;;;;;;47.45;28.17;;;;;;;17.49;66.28;101086.53;4823594;28;119815;-74
2021/10/19 09:43:15;;;;;;;48.47;28.83;;;;;;;17.51;66.59;101092.38;4823289;28;120138;-74
2021/10/19 09:45:43;;;;;;;50.28;30.70;;;;;;;17.47;66.82;101083.47;4813325;29;120194;-74
2021/10/19 09:48:22;;;;;;;51.05;29.17;;;;;;;17.50;67.06;101074.94;4806842;28;119692;-74
2021/10/19 09:50:49;;;;;;;54.33;29.52;;;;;;;17.46;67.18;101076.41;4823023;28;119600;-74
2021/10/19 09:53:19;;;;;;;52.92;31.33;;;;;;;17.47;67.47;101075.91;4828742;28;121594;-74
2021/10/19 09:55:49;;;;;;;53.30;31.45;;;;;;;17.51;67.51;101084.06;4819353;28;121101;-74
2021/10/19 09:58:19;;;;;;;53.33;30.45;;;;;;;17.52;67.68;101077.25;4826517;28;120585;-74
2021/10/19 10:00:45;;;;;;;53.05;29.58;;;;;;;17.54;67.66;101069.19;4810571;29;121095;-74
2021/10/19 10:03:12;;;;;;;52.08;31.08;;;;;;;17.57;67.75;101073.75;4807380;29;120366;-74
2021/10/19 10:05:39;;;;;;;48.47;30.17;;;;;;;17.59;67.56;101064.94;4806501;29;123208;-74
2021/10/19 10:08:19;;;;;;;61.47;31.20;;;;;;;17.57;67.49;101064.69;4824909;28;119961;-74
2021/10/19 10:10:49;;;;;;;58.40;31.58;;;;;;;17.61;67.83;101065.97;4825545;28;120132;-74
2021/10/19 10:13:16;;;;;;;53.75;31.20;;;;;;;17.65;67.93;101051.88;4823946;28;120877;-74
2021/10/19 10:15:43;;;;;;;55.42;32.10;;;;;;;17.67;67.98;101052.94;4811719;29;119961;-75
2021/10/19 10:18:11;;;;;;;54.78;32.22;;;;;;;17.72;68.01;101045.91;4809302;29;121972;-75
2021/10/19 10:20:47;;;;;;;54.08;32.17;;;;;;;17.75;67.79;101050.50;4813851;29;120292;-75
2021/10/19 10:23:33;;;;;;;57.65;31.75;;;;;;;17.74;67.61;101046.97;4812743;29;120714;-75
2021/10/19 10:26:00;;;;;;;57.28;32.17;;;;;;;17.73;67.67;101041.91;4791751;29;121058;-74
2021/10/19 10:28:36;;;;;;;58.97;34.05;;;;;;;17.74;67.61;101038.66;4815647;28;120796;-74
2021/10/19 10:31:07;;;;;;;51.95;31.33;;;;;;;17.73;67.52;101034.34;4799122;28;119949;-74
2021/10/19 10:33:35;;;;;;;49.50;29.77;;;;;;;17.72;67.46;101024.47;4824177;28;120612;-74
2021/10/19 10:36:05;;;;;;;50.83;30.10;;;;;;;17.71;67.45;101025.75;4794282;29;121085;-75
2021/10/19 10:38:31;;;;;;;52.88;30.95;;;;;;;17.69;67.65;101022.69;4828959;28;120431;-75
2021/10/19 10:41:16;;;;;;;55.55;30.17;;;;;;;17.69;67.49;101022.69;4828901;28;119995;-75
2021/10/19 10:43:43;;;;;;;49.60;29.27;;;;;;;17.67;67.40;101011.34;4824143;28;119744;-75
2021/10/19 10:46:14;;;;;;;51.80;30.52;;;;;;;17.67;67.65;101010.53;4799557;28;121771;-75
2021/10/19 10:48:41;;;;;;;52.45;30.02;;;;;;;17.68;67.53;101003.78;4832938;28;121813;-75
2021/10/19 10:51:08;;;;;;;50.17;29.90;;;;;;;17.70;67.59;101017.91;4827046;28;120412;-75
2021/10/19 10:53:42;;;;;;;59.22;32.65;;;;;;;17.73;67.70;101020.47;4823574;28;120486;-75
2021/10/19 10:56:10;;;;;;;53.97;31.15;;;;;;;17.72;67.79;101016.16;4846411;28;120136;-75
2021/10/19 10:58:38;;;;;;;54.20;31.23;;;;;;;17.64;67.51;101003.97;4831530;28;119644;-75
2021/10/19 11:01:14;;;;;;;58.83;31.17;;;;;;;17.77;67.74;101018.25;4811079;28;120361;-76